Time;durP1;ratioP1;P1;durP2;ratioP2;P2;SDS_P1;SDS_P2;PMS_P1;PMS_P2;Temp;Humidity;BMP_temperature;BMP_pressure;BME280_temperature;BME280_humidity;BME280_pressure;Samples;Min_cycle;Max_cycle;Signal;HPM_P1;HPM_P2
2023/08/22 00:01:19;;;;;;;14.57;13.07;;;;;;;;;;5034445;28;20044;-57
2023/08/22 00:03:47;;;;;;;14.90;13.23;;;;;;;;;;5033229;28;20049;-55
2023/08/22 00:06:13;;;;;;;14.07;12.63;;;;;;;;;;5034230;28;20049;-52
2023/08/22 00:08:40;;;;;;;14.55;13.05;;;;;;;;;;5034259;28;20049;-52
2023/08/22 00:11:07;;;;;;;13.68;12.20;;;;;;;;;;5034285;28;20476;-52
2023/08/22 00:13:33;;;;;;;16.15;13.43;;;;;;;;;;5034055;28;20051;-55
2023/08/22 00:16:02;;;;;;;13.50;12.18;;;;;;;;;;5034038;28;20060;-55
2023/08/22 00:18:28;;;;;;;13.55;12.13;;;;;;;;;;5033172;28;20501;-57
2023/08/22 00:20:55;;;;;;;14.27;12.77;;;;;;;;;;5032395;28;20049;-57
2023/08/22 00:23:21;;;;;;;14.85;12.65;;;;;;;;;;5028665;28;20482;-57
2023/08/22 00:25:48;;;;;;;14.55;12.07;;;;;;;;;;5033897;28;20052;-57
2023/08/22 00:28:15;;;;;;;13.93;12.43;;;;;;;;;;5034151;28;20129;-53
2023/08/22 00:30:41;;;;;;;14.10;12.63;;;;;;;;;;5033590;28;20049;-54
2023/08/22 00:33:09;;;;;;;14.07;12.68;;;;;;;;;;5033643;28;20459;-60
2023/08/22 00:35:36;;;;;;;14.13;12.73;;;;;;;;;;5033579;28;20053;-59
2023/08/22 00:38:03;;;;;;;13.52;12.13;;;;;;;;;;5033723;28;20049;-57
2023/08/22 00:40:29;;;;;;;13.07;11.60;;;;;;;;;;5033608;28;20132;-55
2023/08/22 00:42:56;;;;;;;12.02;10.77;;;;;;;;;;5033835;28;20052;-52
2023/08/22 00:45:23;;;;;;;13.93;12.10;;;;;;;;;;5033449;28;20045;-56
2023/08/22 00:47:49;;;;;;;14.10;12.25;;;;;;;;;;5033646;28;20045;-54
2023/08/22 00:50:19;;;;;;;13.52;12.15;;;;;;;;;;5033789;28;20042;-55
2023/08/22 00:52:45;;;;;;;14.52;13.02;;;;;;;;;;5033645;28;20054;-54
2023/08/22 00:55:13;;;;;;;14.65;13.18;;;;;;;;;;5033609;28;20088;-52
2023/08/22 00:57:40;;;;;;;14.13;12.77;;;;;;;;;;5033277;28;20132;-57
2023/08/22 01:00:10;;;;;;;14.73;13.23;;;;;;;;;;5032961;28;20072;-56
2023/08/22 01:02:36;;;;;;;;;;;;;;;;;;5033739;28;20076;-54
2023/08/22 01:05:04;;;;;;;15.32;13.70;;;;;;;;;;5033229;28;19928;-58
2023/08/22 01:07:36;;;;;;;15.18;13.38;;;;;;;;;;5033641;28;20045;-55
2023/08/22 01:10:09;;;;;;;14.30;12.77;;;;;;;;;;5033089;28;20088;-55
2023/08/22 01:12:43;;;;;;;14.50;13.02;;;;;;;;;;5032850;28;20368;-51
2023/08/22 01:15:18;;;;;;;14.05;12.55;;;;;;;;;;5032491;28;20045;-55
2023/08/22 01:17:44;;;;;;;14.30;12.82;;;;;;;;;;5033347;28;20638;-55
2023/08/22 01:20:12;;;;;;;12.98;11.68;;;;;;;;;;5032787;28;20045;-54
2023/08/22 01:22:40;;;;;;;13.50;12.15;;;;;;;;;;5032461;28;20041;-54
2023/08/22 01:25:08;;;;;;;14.57;13.10;;;;;;;;;;5032373;28;20061;-55
2023/08/22 01:27:40;;;;;;;15.60;13.90;;;;;;;;;;5032560;28;20053;-53
2023/08/22 01:30:13;;;;;;;16.10;14.40;;;;;;;;;;5032192;28;20052;-51
2023/08/22 01:32:44;;;;;;;15.02;13.63;;;;;;;;;;5031077;28;20041;-52
2023/08/22 01:35:14;;;;;;;16.05;14.55;;;;;;;;;;5032879;28;20049;-51
2023/08/22 01:37:43;;;;;;;;;;;;;;;;;;5033035;28;20045;-51
2023/08/22 01:40:10;;;;;;;16.85;15.05;;;;;;;;;;5032257;28;19939;-54
2023/08/22 01:42:37;;;;;;;16.30;14.65;;;;;;;;;;5012908;28;20559;-56
2023/08/22 01:45:04;;;;;;;15.43;13.63;;;;;;;;;;5012754;28;20561;-57
2023/08/22 01:47:31;;;;;;;13.85;12.43;;;;;;;;;;5012685;28;20046;-57
2023/08/22 01:49:58;;;;;;;14.45;12.95;;;;;;;;;;5015245;28;20486;-50
2023/08/22 01:52:25;;;;;;;14.32;12.93;;;;;;;;;;5032325;28;20107;-50
2023/08/22 01:54:53;;;;;;;14.63;13.23;;;;;;;;;;5032989;28;20050;-54
2023/08/22 01:57:20;;;;;;;14.88;13.38;;;;;;;;;;5032113;28;20490;-52
2023/08/22 01:59:46;;;;;;;16.73;14.60;;;;;;;;;;5031876;28;20120;-55
2023/08/22 02:02:13;;;;;;;15.07;13.50;;;;;;;;;;5031654;28;20055;-58
2023/08/22 02:04:40;;;;;;;14.80;13.35;;;;;;;;;;5032307;28;20510;-55
2023/08/22 02:07:06;;;;;;;14.88;13.15;;;;;;;;;;5031932;28;20052;-57
2023/08/22 02:09:33;;;;;;;14.23;12.82;;;;;;;;;;5032322;28;20073;-53
2023/08/22 02:12:01;;;;;;;13.43;10.98;;;;;;;;;;5031316;28;20053;-58
2023/08/22 02:14:27;;;;;;;12.27;11.10;;;;;;;;;;5031989;28;20144;-52
2023/08/22 02:16:55;;;;;;;13.55;12.18;;;;;;;;;;5029792;28;20128;-57
2023/08/22 02:19:22;;;;;;;13.02;11.63;;;;;;;;;;5031307;28;20096;-54
2023/08/22 02:21:49;;;;;;;12.90;11.60;;;;;;;;;;5025676;28;20048;-55
2023/08/22 02:24:15;;;;;;;12.05;10.85;;;;;;;;;;5030409;28;20421;-53
2023/08/22 02:26:42;;;;;;;12.38;10.68;;;;;;;;;;5030488;28;20046;-57
2023/08/22 02:29:10;;;;;;;11.40;10.00;;;;;;;;;;5031906;28;20075;-54
2023/08/22 02:31:37;;;;;;;13.07;9.50;;;;;;;;;;5026090;28;20042;-55
2023/08/22 02:34:04;;;;;;;11.23;8.50;;;;;;;;;;5030023;28;20057;-56
2023/08/22 02:36:30;;;;;;;9.60;8.60;;;;;;;;;;5031477;28;20048;-56
2023/08/22 02:38:57;;;;;;;9.88;8.57;;;;;;;;;;5032044;28;20053;-59
2023/08/22 02:41:23;;;;;;;10.80;8.50;;;;;;;;;;5031612;28;20060;-55
2023/08/22 02:43:50;;;;;;;10.02;8.75;;;;;;;;;;5031480;28;20046;-56
2023/08/22 02:46:18;;;;;;;10.82;9.25;;;;;;;;;;5031767;28;20550;-58
2023/08/22 02:48:45;;;;;;;11.27;9.98;;;;;;;;;;5031794;28;20049;-57
2023/08/22 02:51:11;;;;;;;10.82;9.70;;;;;;;;;;5031745;28;20399;-53
2023/08/22 02:53:38;;;;;;;12.15;10.80;;;;;;;;;;5031144;28;20104;-57
2023/08/22 02:56:05;;;;;;;13.07;11.38;;;;;;;;;;5029444;28;20080;-55
2023/08/22 02:58:32;;;;;;;11.88;10.60;;;;;;;;;;5031621;28;20054;-53
2023/08/22 03:00:58;;;;;;;12.60;11.30;;;;;;;;;;5031595;28;20088;-55
2023/08/22 03:03:26;;;;;;;12.77;11.48;;;;;;;;;;5031519;28;20392;-54
2023/08/22 03:05:53;;;;;;;12.68;11.48;;;;;;;;;;5031266;28;20075;-53
2023/08/22 03:08:20;;;;;;;11.50;10.40;;;;;;;;;;5031526;28;20133;-55
2023/08/22 03:10:46;;;;;;;10.65;9.60;;;;;;;;;;5031387;28;20053;-54
2023/08/22 03:13:13;;;;;;;11.13;9.10;;;;;;;;;;5031388;28;20253;-58
2023/08/22 03:15:39;;;;;;;10.40;9.30;;;;;;;;;;5031413;28;20057;-57
2023/08/22 03:18:06;;;;;;;13.45;9.45;;;;;;;;;;5031191;28;20049;-52
2023/08/22 03:20:34;;;;;;;10.10;8.35;;;;;;;;;;5029614;28;20148;-52
2023/08/22 03:23:01;;;;;;;9.52;8.50;;;;;;;;;;5029459;28;20060;-52
2023/08/22 03:25:28;;;;;;;10.13;8.35;;;;;;;;;;5030698;28;20418;-55
2023/08/22 03:27:54;;;;;;;9.88;8.38;;;;;;;;;;5031477;28;20140;-59
2023/08/22 03:30:21;;;;;;;11.20;8.65;;;;;;;;;;5031473;28;20502;-52
2023/08/22 03:32:48;;;;;;;9.35;7.97;;;;;;;;;;5031083;28;20050;-55
2023/08/22 03:35:14;;;;;;;10.18;8.80;;;;;;;;;;5030753;28;20050;-59
2023/08/22 03:37:42;;;;;;;10.77;9.00;;;;;;;;;;5031680;28;20053;-52
2023/08/22 03:40:09;;;;;;;10.45;8.90;;;;;;;;;;5034880;28;20045;-54
2023/08/22 03:42:36;;;;;;;10.18;8.52;;;;;;;;;;5034789;28;20071;-52
2023/08/22 03:45:02;;;;;;;9.60;8.60;;;;;;;;;;5034357;28;20041;-55
2023/08/22 03:47:29;;;;;;;11.10;8.90;;;;;;;;;;5034325;28;20041;-55
2023/08/22 03:49:56;;;;;;;9.18;8.27;;;;;;;;;;5034782;28;20045;-54
2023/08/22 03:52:22;;;;;;;10.68;9.43;;;;;;;;;;5034513;28;20132;-55
2023/08/22 03:54:50;;;;;;;10.90;9.10;;;;;;;;;;5034731;28;20056;-58
2023/08/22 03:57:17;;;;;;;10.55;9.48;;;;;;;;;;5034205;28;20483;-54
2023/08/22 03:59:43;;;;;;;11.00;8.90;;;;;;;;;;5034398;28;20053;-56
2023/08/22 04:02:10;;;;;;;9.85;8.63;;;;;;;;;;5034487;28;20052;-51
2023/08/22 04:04:37;;;;;;;10.35;9.23;;;;;;;;;;5034475;28;20505;-55
2023/08/22 04:07:03;;;;;;;11.65;9.73;;;;;;;;;;5033941;28;20212;-54
2023/08/22 04:09:30;;;;;;;10.35;9.25;;;;;;;;;;5034188;28;20041;-52
2023/08/22 04:11:59;;;;;;;10.10;8.77;;;;;;;;;;5034125;28;20136;-57
2023/08/22 04:14:26;;;;;;;11.93;9.73;;;;;;;;;;5034036;28;20042;-56
2023/08/22 04:16:53;;;;;;;9.98;8.98;;;;;;;;;;5033920;28;20448;-56
2023/08/22 04:19:19;;;;;;;10.18;8.98;;;;;;;;;;5033893;28;20045;-55
2023/08/22 04:21:46;;;;;;;10.60;9.43;;;;;;;;;;5034034;28;20050;-53
2023/08/22 04:24:12;;;;;;;10.88;8.93;;;;;;;;;;5034014;28;20054;-55
2023/08/22 04:26:39;;;;;;;11.15;10.05;;;;;;;;;;5033387;28;20049;-57
2023/08/22 04:29:07;;;;;;;11.23;9.55;;;;;;;;;;5033767;28;20490;-56
2023/08/22 04:31:34;;;;;;;10.65;9.13;;;;;;;;;;5033699;28;20125;-56
2023/08/22 04:34:00;;;;;;;11.00;9.90;;;;;;;;;;5033821;28;20128;-55
2023/08/22 04:36:27;;;;;;;11.13;9.43;;;;;;;;;;5033741;28;20048;-55
2023/08/22 04:38:53;;;;;;;11.95;10.63;;;;;;;;;;5033564;28;20514;-58
2023/08/22 04:41:20;;;;;;;12.25;9.93;;;;;;;;;;5033468;28;20051;-54
2023/08/22 04:43:47;;;;;;;11.73;9.95;;;;;;;;;;5033855;28;20359;-56
2023/08/22 04:46:15;;;;;;;11.32;10.23;;;;;;;;;;5033469;28;20045;-55
2023/08/22 04:48:42;;;;;;;12.30;9.90;;;;;;;;;;5033472;28;20037;-53
2023/08/22 04:51:08;;;;;;;12.90;10.63;;;;;;;;;;5032722;28;20068;-54
2023/08/22 04:53:35;;;;;;;12.27;10.13;;;;;;;;;;5033376;28;20079;-55
2023/08/22 04:56:02;;;;;;;11.80;10.70;;;;;;;;;;5033446;28;20046;-51
2023/08/22 04:58:29;;;;;;;11.98;10.77;;;;;;;;;;5033331;28;20056;-59
2023/08/22 05:00:55;;;;;;;11.32;10.13;;;;;;;;;;5033446;28;20046;-56
2023/08/22 05:03:23;;;;;;;13.38;10.73;;;;;;;;;;5033726;28;20502;-56
2023/08/22 05:05:50;;;;;;;10.57;9.48;;;;;;;;;;5033561;28;20491;-56
2023/08/22 05:08:17;;;;;;;14.25;10.48;;;;;;;;;;5032984;28;20041;-58
2023/08/22 05:10:44;;;;;;;11.88;9.95;;;;;;;;;;5033223;28;20068;-58
2023/08/22 05:13:11;;;;;;;12.55;11.15;;;;;;;;;;5033440;28;20047;-55
2023/08/22 05:15:38;;;;;;;12.43;10.65;;;;;;;;;;5033021;28;20120;-58
2023/08/22 05:18:05;;;;;;;11.52;10.32;;;;;;;;;;5032981;28;20140;-53
2023/08/22 05:20:33;;;;;;;12.32;9.65;;;;;;;;;;5033115;28;20076;-56
2023/08/22 05:22:59;;;;;;;15.50;9.70;;;;;;;;;;5033017;28;20049;-55
2023/08/22 05:25:26;;;;;;;13.35;9.98;;;;;;;;;;5032805;28;20041;-59
2023/08/22 05:27:53;;;;;;;11.10;9.95;;;;;;;;;;5033018;28;20053;-58
2023/08/22 05:30:19;;;;;;;12.90;9.95;;;;;;;;;;5032668;28;20129;-55
2023/08/22 05:32:46;;;;;;;13.48;10.00;;;;;;;;;;5033117;28;20059;-55
2023/08/22 05:35:13;;;;;;;11.43;9.82;;;;;;;;;;5032992;28;20088;-59
2023/08/22 05:37:41;;;;;;;11.85;10.25;;;;;;;;;;5032932;28;20045;-58
2023/08/22 05:40:08;;;;;;;10.13;8.98;;;;;;;;;;5032740;28;20045;-54
2023/08/22 05:42:35;;;;;;;11.65;10.10;;;;;;;;;;5033297;28;20060;-58
2023/08/22 05:45:02;;;;;;;12.50;10.68;;;;;;;;;;5033261;28;20055;-58
2023/08/22 05:47:30;;;;;;;11.90;9.85;;;;;;;;;;5032886;28;20059;-58
2023/08/22 05:49:56;;;;;;;10.73;9.60;;;;;;;;;;5032401;28;20484;-56
2023/08/22 05:52:25;;;;;;;12.50;9.65;;;;;;;;;;5032262;28;20068;-56
2023/08/22 05:54:53;;;;;;;11.38;9.88;;;;;;;;;;5032714;28;20490;-53
2023/08/22 05:57:22;;;;;;;11.82;9.60;;;;;;;;;;5032215;28;20060;-54
2023/08/22 05:59:48;;;;;;;14.23;9.80;;;;;;;;;;5031438;28;20480;-57
2023/08/22 06:02:15;;;;;;;14.52;10.35;;;;;;;;;;5030837;28;20136;-53
2023/08/22 06:04:42;;;;;;;12.07;10.00;;;;;;;;;;5030487;28;20124;-59
2023/08/22 06:07:08;;;;;;;10.40;9.15;;;;;;;;;;5027920;28;20049;-57
2023/08/22 06:09:35;;;;;;;11.02;9.85;;;;;;;;;;5027195;28;20081;-57
2023/08/22 06:12:03;;;;;;;10.90;9.52;;;;;;;;;;5030084;28;20111;-56
2023/08/22 06:14:30;;;;;;;11.80;9.40;;;;;;;;;;5029627;28;20045;-59
2023/08/22 06:16:58;;;;;;;11.32;9.63;;;;;;;;;;5031160;28;20049;-55
2023/08/22 06:19:25;;;;;;;10.52;9.43;;;;;;;;;;5031508;28;20056;-56
2023/08/22 06:21:51;;;;;;;10.27;9.00;;;;;;;;;;5031732;28;20407;-55
2023/08/22 06:24:18;;;;;;;11.93;9.45;;;;;;;;;;5031788;28;20136;-58
2023/08/22 06:26:45;;;;;;;12.48;9.98;;;;;;;;;;5031473;28;20042;-56
2023/08/22 06:29:13;;;;;;;11.73;10.07;;;;;;;;;;5031303;28;20052;-55
2023/08/22 06:31:39;;;;;;;12.75;9.50;;;;;;;;;;5030054;28;20487;-53
2023/08/22 06:34:06;;;;;;;11.93;9.90;;;;;;;;;;5030898;28;20057;-61
2023/08/22 06:36:32;;;;;;;10.00;9.00;;;;;;;;;;5025268;28;20128;-57
2023/08/22 06:38:59;;;;;;;10.43;9.18;;;;;;;;;;5031470;28;20562;-57
2023/08/22 06:41:26;;;;;;;12.20;9.82;;;;;;;;;;5031689;28;20045;-53
2023/08/22 06:43:52;;;;;;;12.63;10.23;;;;;;;;;;5030786;28;20041;-60
2023/08/22 06:46:21;;;;;;;11.38;10.18;;;;;;;;;;5030808;28;20041;-54
2023/08/22 06:48:48;;;;;;;13.10;10.90;;;;;;;;;;5030159;28;20368;-55
2023/08/22 06:51:15;;;;;;;14.02;10.68;;;;;;;;;;5023740;28;20293;-54
2023/08/22 06:53:41;;;;;;;14.55;10.82;;;;;;;;;;5025798;28;20060;-54
2023/08/22 06:56:09;;;;;;;11.50;10.30;;;;;;;;;;5022959;28;20046;-53
2023/08/22 06:58:36;;;;;;;18.60;11.95;;;;;;;;;;5022080;28;20485;-56
2023/08/22 07:01:05;;;;;;;13.50;11.45;;;;;;;;;;5025252;28;20056;-57
2023/08/22 07:03:33;;;;;;;12.60;11.25;;;;;;;;;;5031833;28;20048;-52
2023/08/22 07:06:00;;;;;;;13.00;10.60;;;;;;;;;;5031527;28;20471;-54
2023/08/22 07:08:27;;;;;;;13.40;11.45;;;;;;;;;;5029442;28;20080;-54
2023/08/22 07:11:00;;;;;;;16.80;12.75;;;;;;;;;;5031557;28;20081;-53
2023/08/22 07:13:26;;;;;;;11.82;10.73;;;;;;;;;;5025444;28;20071;-56
2023/08/22 07:15:53;;;;;;;13.98;11.18;;;;;;;;;;5035299;28;20064;-57
2023/08/22 07:18:19;;;;;;;13.15;11.55;;;;;;;;;;5033081;28;20073;-55
2023/08/22 07:20:51;;;;;;;15.70;12.23;;;;;;;;;;5032159;28;20046;-58
2023/08/22 07:23:18;;;;;;;13.73;12.15;;;;;;;;;;5035205;28;20217;-51
2023/08/22 07:25:48;;;;;;;13.32;12.07;;;;;;;;;;5035379;28;20045;-58
2023/08/22 07:28:14;;;;;;;;;;;;;;;;;;5035208;28;20132;-53
2023/08/22 07:30:41;;;;;;;14.70;12.73;;;;;;;;;;5035185;28;19964;-56
2023/08/22 07:33:08;;;;;;;13.77;12.10;;;;;;;;;;5025668;28;20493;-62
2023/08/22 07:35:35;;;;;;;15.27;12.95;;;;;;;;;;5026075;28;20503;-61
2023/08/22 07:38:03;;;;;;;14.35;13.00;;;;;;;;;;5024742;28;20045;-57
2023/08/22 07:40:30;;;;;;;14.23;12.75;;;;;;;;;;5031020;28;20049;-56
2023/08/22 07:42:59;;;;;;;14.50;12.95;;;;;;;;;;5022433;28;20049;-57
2023/08/22 07:45:26;;;;;;;15.10;12.63;;;;;;;;;;5028403;28;20049;-61
2023/08/22 07:47:52;;;;;;;15.00;11.90;;;;;;;;;;5030192;28;20064;-56
2023/08/22 07:50:19;;;;;;;17.02;12.73;;;;;;;;;;5030949;28;20045;-56
2023/08/22 07:52:46;;;;;;;12.38;11.18;;;;;;;;;;5027393;28;20548;-59
2023/08/22 07:55:14;;;;;;;14.95;12.45;;;;;;;;;;5027565;28;20041;-58
2023/08/22 07:57:41;;;;;;;14.13;12.50;;;;;;;;;;5030486;28;20861;-55
2023/08/22 08:00:11;;;;;;;13.95;12.40;;;;;;;;;;5030317;28;20055;-53
2023/08/22 08:02:37;;;;;;;14.10;12.18;;;;;;;;;;5030765;28;20441;-54
2023/08/22 08:05:05;;;;;;;14.20;11.30;;;;;;;;;;5030609;28;20753;-57
2023/08/22 08:07:32;;;;;;;13.52;11.93;;;;;;;;;;5030681;28;20045;-57
2023/08/22 08:09:58;;;;;;;13.35;11.80;;;;;;;;;;5030264;28;20368;-52
2023/08/22 08:12:26;;;;;;;13.15;11.73;;;;;;;;;;5031223;28;20133;-55
2023/08/22 08:14:53;;;;;;;14.18;12.02;;;;;;;;;;5030940;28;20143;-52
2023/08/22 08:17:20;;;;;;;13.27;11.95;;;;;;;;;;5029559;28;20042;-56
2023/08/22 08:19:46;;;;;;;12.57;11.27;;;;;;;;;;5029602;28;20046;-54
2023/08/22 08:22:13;;;;;;;13.85;12.48;;;;;;;;;;5031232;28;20050;-49
2023/08/22 08:24:39;;;;;;;14.50;12.40;;;;;;;;;;5030531;28;20058;-53
2023/08/22 08:27:06;;;;;;;12.63;11.40;;;;;;;;;;5030220;28;20049;-51
2023/08/22 08:29:34;;;;;;;16.38;12.20;;;;;;;;;;5029344;28;20052;-54
2023/08/22 08:32:01;;;;;;;14.07;12.27;;;;;;;;;;5029490;28;20051;-56
2023/08/22 08:34:28;;;;;;;14.32;12.02;;;;;;;;;;5030266;28;20051;-54
2023/08/22 08:36:54;;;;;;;14.23;12.65;;;;;;;;;;5030852;28;20050;-54
2023/08/22 08:39:22;;;;;;;13.88;12.48;;;;;;;;;;5030204;28;20099;-53
2023/08/22 08:41:55;;;;;;;14.07;12.60;;;;;;;;;;5031463;28;20049;-56
2023/08/22 08:44:23;;;;;;;13.48;12.07;;;;;;;;;;5029129;28;20193;-55
2023/08/22 08:46:52;;;;;;;14.55;12.32;;;;;;;;;;5029946;28;20180;-54
2023/08/22 08:49:20;;;;;;;14.52;12.95;;;;;;;;;;5030397;28;20041;-55
2023/08/22 08:51:48;;;;;;;13.60;12.33;;;;;;;;;;5031920;28;20045;-51
2023/08/22 08:54:16;;;;;;;14.57;13.05;;;;;;;;;;5030924;28;20054;-53
2023/08/22 08:56:42;;;;;;;14.07;11.82;;;;;;;;;;5031559;28;20076;-57
2023/08/22 08:59:09;;;;;;;13.85;12.50;;;;;;;;;;5031503;28;20049;-61
2023/08/22 09:01:38;;;;;;;14.18;12.77;;;;;;;;;;5031735;28;20552;-54
2023/08/22 09:04:06;;;;;;;16.38;12.40;;;;;;;;;;5031257;28;20111;-55
2023/08/22 09:06:34;;;;;;;14.18;12.73;;;;;;;;;;5031606;28;20049;-53
2023/08/22 09:09:07;;;;;;;14.50;11.73;;;;;;;;;;5031134;28;20049;-54
2023/08/22 09:11:34;;;;;;;14.85;12.07;;;;;;;;;;5029210;28;20132;-58
2023/08/22 09:14:00;;;;;;;13.95;12.07;;;;;;;;;;5030528;28;20049;-55
2023/08/22 09:16:28;;;;;;;14.65;12.25;;;;;;;;;;5029069;28;20533;-54
2023/08/22 09:19:00;;;;;;;15.60;11.90;;;;;;;;;;5029713;28;20037;-56
2023/08/22 09:21:28;;;;;;;13.27;11.95;;;;;;;;;;5028800;28;20068;-58
2023/08/22 09:24:05;;;;;;;13.52;12.13;;;;;;;;;;5030740;28;20049;-56
2023/08/22 09:26:32;;;;;;;15.00;12.02;;;;;;;;;;5024181;28;20041;-55
2023/08/22 09:29:03;;;;;;;12.52;10.80;;;;;;;;;;5029999;28;20058;-56
2023/08/22 09:31:30;;;;;;;14.15;11.20;;;;;;;;;;5030736;28;20384;-55
2023/08/22 09:33:56;;;;;;;13.13;11.55;;;;;;;;;;5030794;28;20059;-57
2023/08/22 09:36:24;;;;;;;13.52;11.35;;;;;;;;;;5030527;28;20042;-56
2023/08/22 09:38:54;;;;;;;13.55;12.25;;;;;;;;;;5034007;28;20049;-57
2023/08/22 09:41:25;;;;;;;13.90;12.30;;;;;;;;;;5022407;28;20041;-55
2023/08/22 09:43:54;;;;;;;13.27;11.60;;;;;;;;;;5030518;28;20128;-54
2023/08/22 09:46:21;;;;;;;12.98;11.48;;;;;;;;;;5029396;28;20490;-55
2023/08/22 09:48:49;;;;;;;12.60;11.30;;;;;;;;;;5028254;28;20061;-54
2023/08/22 09:51:19;;;;;;;12.60;11.15;;;;;;;;;;5030679;28;20048;-55
2023/08/22 09:53:47;;;;;;;15.20;12.23;;;;;;;;;;5028008;28;20431;-60
2023/08/22 09:56:15;;;;;;;12.38;11.10;;;;;;;;;;5016312;28;20068;-57
2023/08/22 09:58:43;;;;;;;13.40;11.10;;;;;;;;;;5025275;28;20410;-55
2023/08/22 10:01:11;;;;;;;13.27;10.65;;;;;;;;;;5024972;28;20046;-56
2023/08/22 10:03:38;;;;;;;11.48;10.32;;;;;;;;;;5023944;28;20047;-59
2023/08/22 10:06:05;;;;;;;13.07;11.32;;;;;;;;;;5027500;28;20049;-55
2023/08/22 10:08:32;;;;;;;14.23;11.10;;;;;;;;;;5030159;28;20042;-55
2023/08/22 10:10:59;;;;;;;12.48;10.52;;;;;;;;;;5025139;28;20045;-55
2023/08/22 10:13:28;;;;;;;13.00;11.48;;;;;;;;;;5029110;28;20068;-56
2023/08/22 10:15:55;;;;;;;13.07;11.75;;;;;;;;;;5029168;28;20411;-59
2023/08/22 10:18:24;;;;;;;16.90;11.93;;;;;;;;;;5021748;28;20478;-54
2023/08/22 10:20:54;;;;;;;12.07;10.63;;;;;;;;;;5029272;28;20471;-57
2023/08/22 10:23:54;;;;;;;12.95;11.75;;;;;;;;;;5024008;28;20042;-58
2023/08/22 10:26:22;;;;;;;12.40;11.15;;;;;;;;;;5016776;28;20132;-59
2023/08/22 10:29:13;;;;;;;10.52;9.43;;;;;;;;;;5027424;28;20038;-57
2023/08/22 10:32:12;;;;;;;11.13;10.00;;;;;;;;;;5024313;28;20045;-56
2023/08/22 10:35:20;;;;;;;11.52;10.35;;;;;;;;;;5020172;28;20196;-56
2023/08/22 10:37:48;;;;;;;13.38;10.77;;;;;;;;;;5025340;28;20053;-55
2023/08/22 10:40:22;;;;;;;11.32;10.20;;;;;;;;;;5029663;28;20048;-53
2023/08/22 10:43:04;;;;;;;14.25;10.80;;;;;;;;;;5022437;28;20046;-55
2023/08/22 10:45:48;;;;;;;11.63;10.43;;;;;;;;;;5019565;28;20046;-58
2023/08/22 10:48:17;;;;;;;10.88;9.70;;;;;;;;;;5024976;28;20418;-55
2023/08/22 10:50:45;;;;;;;11.02;9.23;;;;;;;;;;5034087;28;20049;-55
2023/08/22 10:53:27;;;;;;;11.50;10.30;;;;;;;;;;5033718;28;20052;-56
2023/08/22 10:55:55;;;;;;;10.45;9.38;;;;;;;;;;5031596;28;20049;-55
2023/08/22 10:58:43;;;;;;;10.52;9.23;;;;;;;;;;5027637;28;20081;-58
2023/08/22 11:01:14;;;;;;;10.77;9.70;;;;;;;;;;5029058;28;20538;-54
2023/08/22 11:03:42;;;;;;;11.27;10.07;;;;;;;;;;5033744;28;20041;-56
2023/08/22 11:06:17;;;;;;;10.57;9.23;;;;;;;;;;5033323;28;20045;-55
2023/08/22 11:08:44;;;;;;;11.57;10.05;;;;;;;;;;5030642;28;20042;-64
2023/08/22 11:11:15;;;;;;;11.82;10.52;;;;;;;;;;5025141;28;20445;-59
2023/08/22 11:13:42;;;;;;;12.18;8.63;;;;;;;;;;5022729;28;20418;-58
2023/08/22 11:16:12;;;;;;;9.40;8.40;;;;;;;;;;5031652;28;20041;-60
2023/08/22 11:18:39;;;;;;;;;;;;;;;;;;5033547;28;20048;-56
2023/08/22 11:21:06;;;;;;;9.77;8.52;;;;;;;;;;5024831;28;20015;-61
2023/08/22 11:23:34;;;;;;;11.32;9.23;;;;;;;;;;5026838;28;20478;-61
2023/08/22 11:26:02;;;;;;;12.23;10.07;;;;;;;;;;5027233;28;20136;-56
2023/08/22 11:28:36;;;;;;;10.85;9.63;;;;;;;;;;5032970;28;20049;-55
2023/08/22 11:31:04;;;;;;;11.65;10.02;;;;;;;;;;5029066;28;20104;-56
2023/08/22 11:33:46;;;;;;;12.90;9.68;;;;;;;;;;5021778;28;20050;-58
2023/08/22 11:36:13;;;;;;;12.98;9.23;;;;;;;;;;5031774;28;20478;-58
2023/08/22 11:38:41;;;;;;;16.42;10.20;;;;;;;;;;5024528;28;20045;-56
2023/08/22 11:41:07;;;;;;;13.57;9.57;;;;;;;;;;5027492;28;20467;-56
2023/08/22 11:43:34;;;;;;;11.05;9.93;;;;;;;;;;5023348;28;20046;-57
2023/08/22 11:46:05;;;;;;;11.38;9.68;;;;;;;;;;5030259;28;20053;-55
2023/08/22 11:48:33;;;;;;;12.60;9.60;;;;;;;;;;5025338;28;20390;-56
2023/08/22 11:51:01;;;;;;;19.92;12.20;;;;;;;;;;5025092;28;20046;-56
2023/08/22 11:53:30;;;;;;;14.93;10.98;;;;;;;;;;5024036;28;20053;-59
2023/08/22 11:55:58;;;;;;;12.80;9.38;;;;;;;;;;5022253;28;20502;-58
2023/08/22 11:58:24;;;;;;;10.40;9.40;;;;;;;;;;5019377;28;20154;-53
2023/08/22 12:00:54;;;;;;;13.73;10.10;;;;;;;;;;5031314;28;20045;-55
2023/08/22 12:03:20;;;;;;;;;;;;;;;;;;5030385;28;20429;-53
2023/08/22 12:05:48;;;;;;;13.70;9.55;;;;;;;;;;5032411;28;20374;-59
2023/08/22 12:08:20;;;;;;;10.07;8.43;;;;;;;;;;5029786;28;20046;-57
2023/08/22 12:10:48;;;;;;;10.82;9.32;;;;;;;;;;5031864;28;20056;-55
2023/08/22 12:13:17;;;;;;;8.85;8.05;;;;;;;;;;5032158;28;20686;-52
2023/08/22 12:15:44;;;;;;;11.40;9.15;;;;;;;;;;5029104;28;20060;-56
2023/08/22 12:18:12;;;;;;;11.38;9.45;;;;;;;;;;5029615;28;20499;-53
2023/08/22 12:20:39;;;;;;;10.00;9.00;;;;;;;;;;5032072;28;20049;-57
2023/08/22 12:23:07;;;;;;;11.13;9.02;;;;;;;;;;5029943;28;20049;-56
2023/08/22 12:25:35;;;;;;;10.43;9.43;;;;;;;;;;5030353;28;20038;-57
2023/08/22 12:28:03;;;;;;;10.80;9.27;;;;;;;;;;5023758;28;20042;-56
2023/08/22 12:30:33;;;;;;;9.77;8.77;;;;;;;;;;5020994;28;20290;-55
2023/08/22 12:33:00;;;;;;;10.13;9.20;;;;;;;;;;5018928;28;20111;-55
2023/08/22 12:35:27;;;;;;;10.10;9.00;;;;;;;;;;5024169;28;20056;-55
2023/08/22 12:37:54;;;;;;;10.35;9.27;;;;;;;;;;5029138;28;20045;-57
2023/08/22 12:40:21;;;;;;;10.48;9.40;;;;;;;;;;5026680;28;20052;-57
2023/08/22 12:42:49;;;;;;;10.43;9.35;;;;;;;;;;5024910;28;20045;-57
2023/08/22 12:45:16;;;;;;;12.55;9.60;;;;;;;;;;5024341;28;20050;-58
2023/08/22 12:47:42;;;;;;;10.90;9.38;;;;;;;;;;5023595;28;20037;-60
2023/08/22 12:50:10;;;;;;;10.73;8.93;;;;;;;;;;5019696;28;20045;-57
2023/08/22 12:52:37;;;;;;;10.73;8.95;;;;;;;;;;5017831;28;20392;-56
2023/08/22 12:55:06;;;;;;;13.18;9.68;;;;;;;;;;5023291;28;20640;-57
2023/08/22 12:57:33;;;;;;;10.45;8.77;;;;;;;;;;5022902;28;20475;-54
2023/08/22 13:06:44;;;;;;;10.80;8.93;;;;;;;;;;5028268;28;20092;-58
2023/08/22 13:09:12;;;;;;;9.90;8.52;;;;;;;;;;5027526;28;20407;-56
2023/08/22 13:11:40;;;;;;;11.35;9.10;;;;;;;;;;5029403;28;20140;-58
2023/08/22 13:14:07;;;;;;;9.73;8.82;;;;;;;;;;5027896;28;20049;-56
2023/08/22 13:16:33;;;;;;;11.20;8.77;;;;;;;;;;5028727;28;20049;-60
2023/08/22 13:19:00;;;;;;;9.77;8.65;;;;;;;;;;5027274;28;20475;-56
2023/08/22 13:21:27;;;;;;;10.07;8.80;;;;;;;;;;5030436;28;20041;-56
2023/08/22 13:23:55;;;;;;;9.52;8.55;;;;;;;;;;5029626;28;20045;-54
2023/08/22 13:26:22;;;;;;;11.88;8.98;;;;;;;;;;5029180;28;20052;-60
2023/08/22 13:28:50;;;;;;;10.85;9.30;;;;;;;;;;5030089;28;20048;-59
2023/08/22 13:31:17;;;;;;;11.10;9.23;;;;;;;;;;5028940;28;20507;-55
2023/08/22 13:33:44;;;;;;;10.57;9.20;;;;;;;;;;5030875;28;20041;-60
2023/08/22 13:36:10;;;;;;;9.63;8.63;;;;;;;;;;5030259;28;20445;-58
2023/08/22 13:38:37;;;;;;;10.18;9.18;;;;;;;;;;5026228;28;20052;-55
2023/08/22 13:41:05;;;;;;;10.82;9.05;;;;;;;;;;5030061;28;20049;-58
2023/08/22 13:43:31;;;;;;;10.05;8.77;;;;;;;;;;5029214;28;20045;-58
2023/08/22 13:45:58;;;;;;;9.15;8.25;;;;;;;;;;5021277;28;20586;-59
2023/08/22 13:48:25;;;;;;;10.05;8.90;;;;;;;;;;5022048;28;20478;-59
2023/08/22 13:50:51;;;;;;;10.02;8.95;;;;;;;;;;5019087;28;20041;-56
2023/08/22 13:53:18;;;;;;;8.90;8.10;;;;;;;;;;5020814;28;20038;-56
2023/08/22 13:55:44;;;;;;;10.00;8.63;;;;;;;;;;5017391;28;20131;-59
2023/08/22 13:58:13;;;;;;;9.55;8.63;;;;;;;;;;5029130;28;20050;-53
2023/08/22 14:00:40;;;;;;;9.70;8.70;;;;;;;;;;5020693;28;20057;-55
2023/08/22 14:03:08;;;;;;;10.85;9.05;;;;;;;;;;5025241;28;20080;-59
2023/08/22 14:05:34;;;;;;;10.13;8.55;;;;;;;;;;5030675;28;20563;-59
2023/08/22 14:08:01;;;;;;;9.93;8.73;;;;;;;;;;5027795;28;20055;-60
2023/08/22 14:10:28;;;;;;;10.15;8.82;;;;;;;;;;5029776;28;20041;-60
2023/08/22 14:12:54;;;;;;;11.40;8.45;;;;;;;;;;5022065;28;20495;-56
2023/08/22 14:15:22;;;;;;;16.98;9.68;;;;;;;;;;5019493;28;20049;-59
2023/08/22 14:17:49;;;;;;;10.32;8.43;;;;;;;;;;5025664;28;20388;-56
2023/08/22 14:20:15;;;;;;;9.65;8.38;;;;;;;;;;5024360;28;20042;-57
2023/08/22 14:22:42;;;;;;;8.95;8.05;;;;;;;;;;5029584;28;20158;-57
2023/08/22 14:25:09;;;;;;;8.88;8.07;;;;;;;;;;5030396;28;20107;-59
2023/08/22 14:27:36;;;;;;;10.75;8.98;;;;;;;;;;5030217;28;20057;-60
2023/08/22 14:30:03;;;;;;;10.23;8.82;;;;;;;;;;5029259;28;20133;-59
2023/08/22 14:32:31;;;;;;;10.48;8.68;;;;;;;;;;5027235;28;20045;-58
2023/08/22 14:34:57;;;;;;;9.32;8.30;;;;;;;;;;5024891;28;20055;-59
2023/08/22 14:37:24;;;;;;;9.73;8.77;;;;;;;;;;5030041;28;20475;-56